Flight Track Log - Related Links

Times and Time Zones

All times are in EDT time to prevent confusion due to time zone crossing. See the SWA499 flight status page for this flight to view local times or setup timezone preferences in your user account.

Time Position Orientation Groundspeed Altitude Reporting Facility
EDT Latitude Longitude Course Direction KTS MPH feet Rate Location/Type
Fri 12:39:56 PM 39.9333 -104.6333 72° East 211 243 7,900  Level Denver TRACON
Fri 12:40:50 PM 39.9500 -104.5500 75° East 259 298 9,800 1,105 Climbing Denver TRACON
Fri 12:41:50 PM 39.9500 -104.4500 90° East 282 325 10,000 250 Climbing Denver TRACON
Fri 12:42:50 PM 39.9500 -104.3500 90° East 287 330 10,300 1,000 Climbing Denver TRACON
Fri 12:43:14 PM 39.9278 -104.3197 134° Southeast 289 333 11,400 2,791 Climbing Denver Center
Fri 12:44:16 PM 39.8836 -104.2228 121° Southeast 312 359 14,300 2,903 Climbing Denver Center
Fri 12:45:00 PM 39.8686 -103.7921 72° East  Level FlightAware Approximate
Fri 12:45:18 PM 39.8789 -104.0861 93° East 355 409 17,400  Level Denver Center
Fri 12:46:20 PM 39.8797 -103.9528 89° East 366 421 20,200 2,565 Climbing Denver Center
Fri 12:47:22 PM 39.8894 -103.8111 85° East 391 450 22,700 2,496 Climbing Denver Center
Fri 12:48:25 PM 39.9017 -103.6697 84° East 384 442 25,400 2,352 Climbing Denver Center
Fri 12:49:27 PM 39.9122 -103.5192 85° East 408 470 27,600 2,081 Climbing Denver Center
Fri 12:50:29 PM 39.9228 -103.3658 85° East 421 484 29,700 1,588 Climbing Denver Center
Fri 12:51:43 PM 39.9356 -103.1806 85° East 437 503 31,200 1,368 Climbing Denver Center
Fri 12:52:45 PM 39.9486 -102.9867 85° East 454 522 32,800 1,452 Climbing Denver Center
Fri 12:53:47 PM 39.9603 -102.8158 85° East 468 539 34,200 1,452 Climbing Denver Center
Fri 12:54:49 PM 39.9697 -102.6478 86° East 472 543 35,800 1,403 Climbing Denver Center
Fri 12:55:51 PM 39.9828 -102.4589 85° East 470 541 37,100 968 Climbing Denver Center
Fri 12:56:53 PM 39.9925 -102.2931 86° East 478 550 37,800 816 Climbing Denver Center
Fri 12:57:56 PM 40.0044 -102.0958 85° East 488 562 38,800 576 Climbing Denver Center
Fri 12:58:58 PM 40.0136 -101.9256 86° East 491 565 39,000 97 Climbing Denver Center
Fri 01:00:00 PM 40.0258 -101.7275 85° East 491 565 39,000  Level Denver Center
Fri 01:01:02 PM 40.0347 -101.5581 86° East 490 564 39,000  Level Denver Center
Fri 01:02:04 PM 40.0453 -101.3633 86° East 484 557 39,000  Level Denver Center
Fri 01:03:06 PM 40.0533 -101.1950 86° East 488 562 39,000  Level Denver Center
Fri 01:04:20 PM 40.0633 -100.9992 86° East 486 559 39,000  Level Denver Center
Fri 01:05:22 PM 40.0747 -100.7806 86° East 478 550 39,000  Level Denver Center
Fri 01:06:24 PM 40.0814 -100.6161 87° East 477 549 39,000  Level Denver Center
Fri 01:07:27 PM 40.0906 -100.4239 86° East 477 549 39,000  Level Denver Center
Fri 01:08:29 PM 40.0975 -100.2572 87° East 482 555 39,000  Level Denver Center
Fri 01:09:31 PM 40.1058 -100.0644 87° East 480 552 39,000  Level Denver Center
Fri 01:10:33 PM 40.1125 -99.8842 87° East 482 555 39,000  Level Denver Center
Fri 01:11:35 PM 40.1181 -99.7100 88° East 483 556 39,000  Level Denver Center
Fri 01:12:37 PM 40.0989 -99.5361 98° East 484 557 39,000  Level Denver Center
Fri 01:13:39 PM 40.0856 -99.3636 96° East 481 554 39,000  Level Denver Center
Fri 01:14:41 PM 40.0806 -99.1864 92° East 488 562 39,000  Level Denver Center
Fri 01:15:43 PM 40.0917 -98.9711 86° East 496 571 39,000  Level Denver Center
Fri 01:16:36 PM 40.0983 -98.8281 86° East 495 570 39,000  Level Minneapolis Center
Fri 01:17:38 PM 40.1075 -98.6497 86° East 496 571 39,000  Level Minneapolis Center
Fri 01:18:40 PM 40.1147 -98.4728 87° East 493 567 39,000  Level Minneapolis Center
Fri 01:19:42 PM 40.1236 -98.2953 86° East 492 566 39,000  Level Minneapolis Center
Fri 01:20:44 PM 40.1331 -98.0806 87° East 493 567 39,000  Level Minneapolis Center
Fri 01:21:46 PM 40.1400 -97.9028 87° East 494 568 39,000  Level Minneapolis Center
Fri 01:22:48 PM 40.1483 -97.7247 86° East 492 566 39,000 -97 Level Minneapolis Center
Fri 01:23:50 PM 40.1550 -97.5469 87° East 492 566 38,800 -581 Descending Minneapolis Center
Fri 01:24:52 PM 40.1628 -97.3686 87° East 493 567 37,800 -960 Descending Minneapolis Center
Fri 01:25:55 PM 40.1692 -97.1775 87° East 486 559 36,800 -1,248 Descending Minneapolis Center
Fri 01:26:57 PM 40.1758 -96.9992 87° East 491 565 35,200 -1,597 Descending Minneapolis Center
Fri 01:27:59 PM 40.1814 -96.8194 88° East 494 568 33,500 -1,355 Descending Minneapolis Center
Fri 01:29:01 PM 40.1881 -96.6003 88° East 501 577 32,400 -1,452 Descending Minneapolis Center
Fri 01:30:03 PM 40.1947 -96.4164 87° East 506 582 30,500 -2,274 Descending Minneapolis Center
Fri 01:31:05 PM 40.1964 -96.2342 89° East 506 582 27,700 -2,710 Descending Minneapolis Center
Fri 01:32:07 PM 40.1397 -96.0725 115° Southeast 493 567 24,900 -2,710 Descending Minneapolis Center
Fri 01:33:09 PM 40.0758 -95.9269 120° Southeast 471 542 22,100 -2,613 Descending Minneapolis Center
Fri 01:34:11 PM 40.0147 -95.7828 119° Southeast 461 531 19,500 -2,855 Descending Minneapolis Center
Fri 01:35:13 PM 39.9406 -95.6197 121° Southeast 444 511 16,200 -2,903 Descending Minneapolis Center
Fri 01:36:15 PM 39.8811 -95.4867 120° Southeast 432 497 13,500 -1,872 Descending Minneapolis Center
Fri 01:37:02 PM 39.8331 -95.4036 127° Southeast 377 434 12,800 -991 Descending Kansas City Center
Fri 01:38:04 PM 39.7631 -95.3314 142° Southeast 337 388 11,700 -1,082 Descending Kansas City Center
Fri 01:39:04 PM 39.6989 -95.2656 142° Southeast 307 353 10,600 -1,065 Descending Kansas City Center
Fri 01:40:08 PM 39.6556 -95.1642 119° Southeast 292 336 9,500 -1,056 Descending Kansas City Center
Fri 01:41:09 PM 39.6233 -95.0786 116° Southeast 276 318 8,400 -1,131 Descending Kansas City Center
Fri 01:42:10 PM 39.5864 -94.9789 116° Southeast 274 315 7,200 -1,008 Descending Kansas City Center
Fri 01:43:14 PM 39.5558 -94.8961 116° Southeast 266 306 6,300 -968 Descending Kansas City Center
Fri 01:44:14 PM 39.5203 -94.8019 116° Southeast 260 299 5,200 -1,016 Descending Kansas City Center
Fri 01:45:18 PM 39.4914 -94.7239 116° Southeast 249 287 4,200 -871 Descending Kansas City Center
Fri 01:46:18 PM 39.4425 -94.6856 149° Southeast 206 237 3,400 -774 Descending Kansas City Center
Fri 01:47:22 PM 39.3983 -94.6981 192° South 169 194 2,600 -726 Descending Kansas City Center
Fri 01:48:22 PM 39.3642 -94.7083 193° South 138 159 1,900 -732 Descending Kansas City Center
Fri 01:49:25 PM 39.3250 -94.7200 193° South 129 148 1,100 -762 Descending Kansas City Center

Login

Don't have an account? Register now (free) for customized features, flight alerts, and more!